Time;durP1;ratioP1;P1;durP2;ratioP2;P2;SDS_P1;SDS_P2;PMS_P1;PMS_P2;Temp;Humidity;BMP_temperature;BMP_pressure;BME280_temperature;BME280_humidity;BME280_pressure;Samples;Min_cycle;Max_cycle;Signal;HPM_P1;HPM_P2
2022/03/11 00:01:55;;;;;;;15.70;6.83;;;9.60;62.80;;;;;;4946088;28;20185;-80
2022/03/11 00:04:20;;;;;;;11.90;5.93;;;9.50;62.80;;;;;;4931022;28;20263;-79
2022/03/11 00:06:46;;;;;;;11.43;5.57;;;9.50;62.90;;;;;;4946499;28;20200;-80
2022/03/11 00:09:12;;;;;;;11.27;6.53;;;9.50;63.00;;;;;;4946694;28;20287;-79
2022/03/11 00:11:38;;;;;;;17.10;6.33;;;9.40;63.10;;;;;;4961847;28;20331;-79
2022/03/11 00:14:03;;;;;;;11.73;6.03;;;9.40;63.30;;;;;;4963636;28;20716;-79
2022/03/11 00:16:29;;;;;;;15.33;6.73;;;9.40;63.40;;;;;;4948198;28;20197;-80
2022/03/11 00:18:55;;;;;;;14.10;6.70;;;9.30;63.40;;;;;;4961658;28;20276;-78
2022/03/11 00:21:21;;;;;;;13.90;6.13;;;9.30;63.60;;;;;;4961702;28;20181;-78
2022/03/11 00:23:47;;;;;;;11.90;6.13;;;9.30;63.70;;;;;;4944635;28;20200;-79
2022/03/11 00:26:12;;;;;;;12.43;6.57;;;9.20;63.80;;;;;;4944787;28;20257;-80
2022/03/11 00:28:38;;;;;;;10.87;6.53;;;9.20;63.90;;;;;;4976028;28;20697;-79
2022/03/11 00:31:07;;;;;;;13.80;6.43;;;9.20;64.00;;;;;;4959401;28;20692;-79
2022/03/11 00:33:33;;;;;;;21.13;7.63;;;9.10;64.10;;;;;;4959988;28;20216;-79
2022/03/11 00:35:59;;;;;;;11.27;6.37;;;9.10;64.30;;;;;;4960401;28;20184;-79
2022/03/11 00:38:25;;;;;;;12.33;6.70;;;9.10;64.30;;;;;;4975485;28;20649;-79
2022/03/11 00:40:56;;;;;;;17.97;7.13;;;9.00;64.40;;;;;;4974419;28;20567;-79
2022/03/11 00:43:25;;;;;;;11.17;6.97;;;9.00;64.50;;;;;;4943025;28;20251;-79
2022/03/11 00:45:51;;;;;;;12.10;6.50;;;9.00;64.60;;;;;;4960866;28;20205;-80
2022/03/11 00:48:17;;;;;;;10.73;6.23;;;9.00;64.70;;;;;;4944306;28;20287;-78
2022/03/11 00:50:43;;;;;;;12.33;6.43;;;8.90;64.70;;;;;;4956082;28;20637;-79
2022/03/11 00:53:09;;;;;;;13.33;6.60;;;8.90;64.80;;;;;;4944126;28;20223;-79
2022/03/11 00:55:35;;;;;;;13.23;6.40;;;8.90;64.80;;;;;;4926509;28;20196;-79
2022/03/11 00:58:00;;;;;;;11.13;6.60;;;8.90;65.00;;;;;;4927731;28;20246;-79
2022/03/11 01:00:26;;;;;;;12.37;6.90;;;8.80;65.00;;;;;;4957100;28;20380;-80
2022/03/11 01:02:52;;;;;;;15.47;7.13;;;8.80;65.10;;;;;;4945552;28;20232;-79
2022/03/11 01:05:19;;;;;;;13.60;6.87;;;8.80;65.20;;;;;;4960418;28;20185;-79
2022/03/11 01:07:45;;;;;;;13.73;7.23;;;8.70;65.20;;;;;;4929563;28;20251;-78
2022/03/11 01:10:10;;;;;;;12.70;6.93;;;8.70;65.20;;;;;;4957933;28;20196;-80
2022/03/11 01:12:38;;;;;;;13.77;7.23;;;8.70;65.30;;;;;;4942577;28;20216;-80
2022/03/11 01:15:05;;;;;;;14.20;6.83;;;8.70;65.30;;;;;;4945367;28;20738;-80
2022/03/11 01:17:30;;;;;;;16.00;7.33;;;8.70;65.40;;;;;;4976599;28;20258;-79
2022/03/11 01:19:56;;;;;;;16.67;7.23;;;8.70;65.40;;;;;;4959387;28;20188;-78
2022/03/11 01:22:22;;;;;;;12.20;6.57;;;8.70;65.40;;;;;;4944695;28;20216;-79
2022/03/11 01:24:49;;;;;;;18.13;6.73;;;8.60;65.40;;;;;;4944387;28;20196;-79
2022/03/11 01:27:14;;;;;;;12.93;7.10;;;8.60;65.40;;;;;;4943461;28;20319;-78
2022/03/11 01:29:40;;;;;;;15.77;7.20;;;8.60;65.50;;;;;;4942728;28;20302;-79
2022/03/11 01:32:06;;;;;;;14.63;7.10;;;8.60;65.50;;;;;;4961657;28;20196;-79
2022/03/11 01:34:32;;;;;;;14.33;6.77;;;8.60;65.50;;;;;;4960906;28;20712;-79
2022/03/11 01:36:58;;;;;;;13.80;7.63;;;8.60;65.60;;;;;;4961437;28;20279;-79
2022/03/11 01:39:23;;;;;;;13.03;6.93;;;8.60;65.60;;;;;;4957792;28;20270;-79
2022/03/11 01:41:49;;;;;;;12.47;7.07;;;8.50;65.50;;;;;;4942306;28;20239;-79
2022/03/11 01:44:15;;;;;;;13.90;7.43;;;8.50;65.50;;;;;;4962309;28;20663;-78
2022/03/11 01:46:41;;;;;;;16.13;6.87;;;8.50;65.60;;;;;;4960199;28;20271;-79
2022/03/11 01:49:09;;;;;;;12.90;7.10;;;8.50;65.60;;;;;;4959044;28;20207;-78
2022/03/11 01:51:39;;;;;;;13.23;6.80;;;8.50;65.70;;;;;;4960291;28;20251;-78
2022/03/11 01:54:05;;;;;;;18.47;6.60;;;8.50;65.70;;;;;;4960343;28;20307;-78
2022/03/11 01:56:31;;;;;;;14.00;7.40;;;8.50;65.80;;;;;;4957323;28;20189;-79
2022/03/11 01:58:57;;;;;;;13.60;6.33;;;8.50;65.70;;;;;;4961671;28;20684;-79
2022/03/11 02:01:24;;;;;;;14.33;7.40;;;8.40;65.70;;;;;;4961010;28;20192;-81
2022/03/11 02:03:50;;;;;;;11.17;6.80;;;8.40;65.70;;;;;;4959552;28;20268;-79
2022/03/11 02:06:18;;;;;;;8.83;5.93;;;8.40;65.70;;;;;;4943352;28;20637;-80
2022/03/11 02:08:44;;;;;;;13.10;6.97;;;8.40;65.80;;;;;;4960404;28;20223;-81
2022/03/11 02:11:13;;;;;;;12.67;7.17;;;8.30;65.80;;;;;;4957290;28;20231;-81
2022/03/11 02:13:46;;;;;;;11.67;6.63;;;8.30;65.80;;;;;;4930199;28;20280;-81
2022/03/11 02:16:15;;;;;;;11.67;6.67;;;8.20;65.90;;;;;;4959345;28;20685;-80
2022/03/11 02:18:42;;;;;;;12.87;6.93;;;8.20;65.90;;;;;;4943926;28;20207;-81
2022/03/11 02:21:09;;;;;;;14.80;7.13;;;8.20;66.00;;;;;;4961652;28;20281;-82
2022/03/11 02:23:48;;;;;;;15.73;7.33;;;8.20;66.10;;;;;;4959307;28;20251;-81
2022/03/11 02:26:15;;;;;;;13.67;6.93;;;8.10;66.30;;;;;;4961120;28;20192;-82
2022/03/11 02:28:42;;;;;;;16.47;6.97;;;8.10;66.40;;;;;;4946398;28;20213;-81
2022/03/11 02:31:08;;;;;;;15.27;7.03;;;8.00;66.40;;;;;;4961205;28;20196;-80
2022/03/11 02:33:34;;;;;;;14.57;7.17;;;8.00;66.50;;;;;;4947605;28;20209;-81
2022/03/11 02:35:59;;;;;;;17.90;7.60;;;8.00;66.60;;;;;;4962844;28;20200;-81
2022/03/11 02:38:26;;;;;;;13.20;6.87;;;8.00;66.80;;;;;;4947687;28;20208;-81
2022/03/11 02:40:52;;;;;;;18.50;7.27;;;7.90;67.50;;;;;;4932324;28;20221;-79
2022/03/11 02:43:18;;;;;;;14.10;7.70;;;7.90;67.00;;;;;;4927873;28;20207;-81
2022/03/11 02:45:43;;;;;;;13.63;7.03;;;7.80;67.10;;;;;;4961583;28;20280;-80
2022/03/11 02:48:09;;;;;;;13.30;7.30;;;7.80;67.20;;;;;;4961149;28;20208;-81
2022/03/11 02:50:35;;;;;;;16.33;8.10;;;7.80;67.40;;;;;;4945606;28;20652;-80
2022/03/11 02:53:01;;;;;;;14.60;7.87;;;7.80;67.50;;;;;;4929679;28;20208;-80
2022/03/11 02:55:26;;;;;;;18.93;7.97;;;7.70;67.60;;;;;;4946237;28;20195;-80
2022/03/11 02:57:52;;;;;;;12.47;7.03;;;7.70;67.70;;;;;;4931816;28;20571;-81
2022/03/11 03:00:18;;;;;;;16.03;7.83;;;7.70;67.80;;;;;;4930372;28;20195;-80
2022/03/11 03:02:44;;;;;;;16.57;8.23;;;7.60;67.80;;;;;;4930405;28;20243;-80
2022/03/11 03:05:09;;;;;;;15.00;7.40;;;7.60;67.90;;;;;;4947895;28;20581;-81
2022/03/11 03:07:35;;;;;;;14.17;7.63;;;7.60;68.00;;;;;;4960328;28;20193;-80
2022/03/11 03:10:01;;;;;;;19.90;8.27;;;7.60;68.00;;;;;;4965936;28;20688;-82
2022/03/11 03:12:27;;;;;;;14.87;7.80;;;7.60;68.20;;;;;;4944418;28;20194;-80
2022/03/11 03:14:53;;;;;;;15.87;7.50;;;7.50;68.20;;;;;;4963514;28;20185;-80
2022/03/11 03:17:21;;;;;;;16.13;8.17;;;7.50;68.20;;;;;;4931789;28;20201;-80
2022/03/11 03:19:47;;;;;;;17.40;8.50;;;7.50;68.30;;;;;;4964554;28;20978;-80
2022/03/11 03:22:13;;;;;;;15.47;7.80;;;7.50;68.30;;;;;;4979118;28;20846;-81
2022/03/11 03:24:39;;;;;;;15.37;8.13;;;7.50;68.40;;;;;;4945289;28;20908;-82
2022/03/11 03:27:05;;;;;;;16.77;8.23;;;7.50;68.60;;;;;;4931570;28;20235;-79
2022/03/11 03:29:30;;;;;;;16.10;8.47;;;7.40;68.60;;;;;;4946727;28;20223;-80
2022/03/11 03:31:59;;;;;;;17.37;8.17;;;7.40;68.70;;;;;;4948664;28;20207;-78
2022/03/11 03:34:42;;;;;;;17.33;8.20;;;7.40;68.80;;;;;;4958951;28;20228;-77
2022/03/11 03:37:10;;;;;;;14.70;8.27;;;7.40;69.00;;;;;;4970210;28;20199;-78
2022/03/11 03:39:38;;;;;;;14.70;7.73;;;7.30;68.90;;;;;;4954157;28;20193;-78
2022/03/11 03:42:04;;;;;;;15.83;7.77;;;7.30;69.00;;;;;;4967963;28;20268;-78
2022/03/11 03:44:30;;;;;;;17.50;8.43;;;7.30;69.10;;;;;;4972842;28;20242;-78
2022/03/11 03:46:56;;;;;;;19.90;8.30;;;7.30;69.20;;;;;;4940157;28;20291;-78
2022/03/11 03:49:21;;;;;;;20.17;8.60;;;7.30;69.40;;;;;;4954935;28;20661;-77
2022/03/11 03:51:47;;;;;;;14.47;8.10;;;7.20;69.40;;;;;;4956221;28;20189;-78
2022/03/11 03:54:14;;;;;;;16.27;8.07;;;7.20;69.50;;;;;;4956329;28;20244;-77
2022/03/11 03:56:42;;;;;;;21.60;9.00;;;7.10;69.70;;;;;;4983284;28;20485;-78
2022/03/11 03:59:09;;;;;;;15.90;7.93;;;7.10;69.80;;;;;;4987727;28;20200;-77
2022/03/11 04:01:40;;;;;;;14.37;8.30;;;7.10;70.00;;;;;;4972448;28;20275;-78
2022/03/11 04:04:08;;;;;;;18.10;8.97;;;7.10;70.20;;;;;;4953598;28;20236;-77
2022/03/11 04:06:35;;;;;;;18.40;8.27;;;7.00;70.20;;;;;;4969738;28;20280;-78
2022/03/11 04:09:05;;;;;;;17.83;8.83;;;7.00;70.40;;;;;;4955324;28;20619;-79
2022/03/11 04:11:31;;;;;;;17.37;8.50;;;7.00;70.60;;;;;;4968068;28;20196;-78
2022/03/11 04:13:58;;;;;;;18.17;8.37;;;7.00;70.70;;;;;;4969059;28;20208;-77
2022/03/11 04:16:24;;;;;;;18.57;8.43;;;7.00;70.80;;;;;;4953202;28;20204;-78
2022/03/11 04:18:50;;;;;;;16.90;8.47;;;6.90;70.80;;;;;;4972169;28;20192;-78
2022/03/11 04:21:17;;;;;;;19.37;8.07;;;6.90;70.90;;;;;;4972183;28;20566;-77
2022/03/11 04:23:44;;;;;;;16.97;8.10;;;6.90;70.90;;;;;;4986250;28;20189;-78
2022/03/11 04:26:10;;;;;;;18.40;8.73;;;6.90;71.00;;;;;;4955359;28;20287;-79
2022/03/11 04:28:37;;;;;;;17.87;8.60;;;6.90;71.10;;;;;;4986718;28;20206;-77
2022/03/11 04:31:07;;;;;;;19.43;9.13;;;6.80;71.20;;;;;;4952155;28;20200;-79
2022/03/11 04:33:34;;;;;;;16.90;8.57;;;6.80;71.40;;;;;;4984445;28;20216;-77
2022/03/11 04:36:00;;;;;;;15.73;8.17;;;6.80;71.60;;;;;;4968083;28;20283;-78
2022/03/11 04:38:26;;;;;;;14.80;7.77;;;6.80;71.80;;;;;;4951898;28;20276;-78
2022/03/11 04:40:52;;;;;;;19.63;8.57;;;6.70;71.90;;;;;;4939516;28;20256;-77
2022/03/11 04:43:18;;;;;;;18.23;8.57;;;6.70;72.00;;;;;;4969280;28;20224;-77
2022/03/11 04:45:44;;;;;;;17.33;8.13;;;6.70;72.20;;;;;;4968874;28;20220;-77
2022/03/11 04:48:10;;;;;;;16.93;8.30;;;6.70;72.30;;;;;;4937609;28;20211;-78
2022/03/11 04:50:35;;;;;;;18.17;8.60;;;6.70;72.40;;;;;;4955575;28;20196;-79
2022/03/11 04:53:03;;;;;;;17.77;8.50;;;6.70;72.50;;;;;;4938012;28;20365;-78
2022/03/11 04:55:28;;;;;;;19.57;8.07;;;6.60;72.50;;;;;;4966743;28;20181;-78
2022/03/11 04:57:54;;;;;;;17.27;8.33;;;6.60;72.60;;;;;;4970067;28;20204;-77
2022/03/11 05:00:20;;;;;;;17.57;9.07;;;6.60;72.70;;;;;;4936708;28;20200;-78
2022/03/11 05:02:46;;;;;;;16.07;7.77;;;6.60;72.70;;;;;;4969028;28;20227;-79
2022/03/11 05:05:14;;;;;;;17.70;7.67;;;6.60;72.70;;;;;;4936418;28;20241;-79
2022/03/11 05:07:41;;;;;;;18.40;8.50;;;6.60;72.70;;;;;;4952733;28;20201;-78
2022/03/11 05:10:08;;;;;;;17.27;8.17;;;6.60;72.70;;;;;;4971285;28;20627;-79
2022/03/11 05:12:37;;;;;;;17.37;8.17;;;6.60;72.70;;;;;;4954112;28;20261;-79
2022/03/11 05:15:05;;;;;;;17.63;8.83;;;6.60;72.60;;;;;;4966741;28;20196;-78
2022/03/11 05:17:31;;;;;;;14.10;7.57;;;6.60;72.60;;;;;;4963631;28;20321;-79
2022/03/11 05:19:57;;;;;;;19.40;8.13;;;6.60;72.50;;;;;;4967228;28;20203;-77
2022/03/11 05:22:23;;;;;;;13.97;7.60;;;6.60;72.50;;;;;;4970024;28;20709;-77
2022/03/11 05:24:49;;;;;;;16.57;7.87;;;6.60;72.40;;;;;;4956287;28;20208;-79
2022/03/11 05:27:15;;;;;;;16.13;7.50;;;6.60;72.40;;;;;;4937346;28;20199;-79
2022/03/11 05:29:43;;;;;;;17.60;8.37;;;6.60;72.30;;;;;;4966861;28;20239;-77
2022/03/11 05:32:10;;;;;;;15.13;7.50;;;6.60;73.00;;;;;;4955758;28;20201;-79
2022/03/11 05:34:39;;;;;;;16.90;8.00;;;6.60;72.30;;;;;;4951161;28;20225;-79
2022/03/11 05:37:05;;;;;;;18.80;7.87;;;6.50;72.20;;;;;;4973006;28;20191;-78
2022/03/11 05:39:32;;;;;;;14.77;7.53;;;6.50;72.30;;;;;;4950832;28;20274;-77
2022/03/11 05:42:00;;;;;;;15.43;7.47;;;6.50;72.40;;;;;;4956772;28;20212;-76
2022/03/11 05:44:26;;;;;;;21.67;8.47;;;6.50;72.40;;;;;;4961492;28;20224;-77
2022/03/11 05:46:53;;;;;;;17.27;7.47;;;6.50;72.50;;;;;;4974186;28;20200;-77
2022/03/11 05:49:20;;;;;;;15.50;7.43;;;6.40;72.50;;;;;;4988942;28;20317;-79
2022/03/11 05:51:46;;;;;;;17.87;8.53;;;6.40;72.50;;;;;;4956212;28;20196;-78
2022/03/11 05:54:12;;;;;;;16.23;8.27;;;6.50;72.70;;;;;;4942660;28;20232;-79
2022/03/11 05:56:38;;;;;;;18.37;7.73;;;6.40;72.70;;;;;;4955408;28;20220;-78
2022/03/11 05:59:04;;;;;;;16.80;8.07;;;6.40;72.80;;;;;;4939711;28;20220;-78
2022/03/11 06:01:31;;;;;;;19.40;8.50;;;6.30;72.80;;;;;;4971680;28;20448;-78
2022/03/11 06:03:57;;;;;;;17.23;7.37;;;6.30;73.00;;;;;;4950666;28;20883;-78
2022/03/11 06:06:23;;;;;;;18.87;8.03;;;6.30;73.00;;;;;;4952366;28;20289;-79
2022/03/11 06:08:50;;;;;;;24.03;8.00;;;6.30;73.10;;;;;;4951686;28;20216;-79
2022/03/11 06:11:15;;;;;;;17.33;9.40;;;6.30;73.20;;;;;;4938574;28;20224;-78
2022/03/11 06:13:41;;;;;;;14.30;7.07;;;6.20;73.30;;;;;;4950329;28;20364;-77
2022/03/11 06:16:06;;;;;;;14.00;7.77;;;6.20;73.30;;;;;;4954953;28;20193;-78
2022/03/11 06:18:32;;;;;;;15.17;7.83;;;6.20;73.30;;;;;;4966216;28;20263;-78
2022/03/11 06:20:58;;;;;;;19.07;7.37;;;6.20;73.50;;;;;;4961629;28;20287;-79
2022/03/11 06:23:24;;;;;;;18.33;7.90;;;6.20;73.50;;;;;;4937707;28;20192;-78
2022/03/11 06:25:50;;;;;;;14.70;7.80;;;6.20;73.60;;;;;;4968255;28;20187;-78
2022/03/11 06:28:17;;;;;;;20.47;8.10;;;6.20;73.60;;;;;;4950964;28;20284;-79
2022/03/11 06:30:45;;;;;;;20.90;7.83;;;6.30;73.60;;;;;;4935263;28;20200;-78
2022/03/11 06:33:11;;;;;;;15.23;7.07;;;6.30;73.60;;;;;;4938296;28;20686;-77
2022/03/11 06:35:37;;;;;;;14.47;7.47;;;6.30;73.60;;;;;;4955135;28;20188;-79
2022/03/11 06:38:03;;;;;;;13.67;6.73;;;6.30;73.80;;;;;;4970248;28;20279;-79
2022/03/11 06:40:29;;;;;;;13.20;7.10;;;6.40;73.60;;;;;;4956390;28;20192;-79
2022/03/11 06:42:55;;;;;;;12.53;6.93;;;6.40;73.60;;;;;;4969512;28;20219;-78
2022/03/11 06:45:24;;;;;;;16.80;7.77;;;6.50;73.60;;;;;;4940560;28;20215;-79
2022/03/11 06:47:50;;;;;;;15.80;7.73;;;6.50;73.50;;;;;;4973570;28;20197;-78
2022/03/11 06:50:17;;;;;;;15.00;7.40;;;6.50;73.40;;;;;;4968680;28;20888;-78
2022/03/11 06:52:44;;;;;;;18.43;7.90;;;6.60;73.40;;;;;;4973328;28;20217;-77
2022/03/11 06:55:10;;;;;;;17.93;7.23;;;6.70;73.40;;;;;;4970451;28;20434;-78
2022/03/11 06:57:39;;;;;;;12.97;7.23;;;6.70;73.20;;;;;;4970423;28;20608;-80
2022/03/11 07:00:06;;;;;;;16.47;7.13;;;6.70;73.20;;;;;;4955290;28;20245;-79
2022/03/11 07:02:34;;;;;;;18.50;8.03;;;6.80;73.00;;;;;;4958056;28;20681;-78
2022/03/11 07:04:59;;;;;;;20.13;7.00;;;6.80;73.00;;;;;;4929425;28;1169036;-79
2022/03/11 07:07:28;;;;;;;11.97;6.77;;;6.80;72.90;;;;;;4954101;28;20194;-78
2022/03/11 07:09:54;;;;;;;15.30;7.57;;;6.90;72.90;;;;;;4953200;28;20189;-77
2022/03/11 07:12:20;;;;;;;25.17;7.43;;;6.90;72.90;;;;;;4953599;28;20280;-77
2022/03/11 07:14:48;;;;;;;11.97;6.50;;;6.90;72.90;;;;;;4954258;28;20865;-78
2022/03/11 07:17:15;;;;;;;14.93;7.43;;;6.90;72.80;;;;;;4958035;28;20610;-79
2022/03/11 07:19:41;;;;;;;12.40;6.97;;;7.00;72.80;;;;;;4945976;28;20192;-78
2022/03/11 07:22:08;;;;;;;16.30;7.23;;;7.00;72.70;;;;;;4958429;28;20188;-79
2022/03/11 07:24:34;;;;;;;15.67;7.13;;;7.10;72.70;;;;;;4948677;28;20181;-78
2022/03/11 07:27:00;;;;;;;15.47;7.87;;;7.10;72.60;;;;;;4943936;28;20207;-79
2022/03/11 07:29:25;;;;;;;13.10;7.00;;;7.10;72.50;;;;;;4926975;28;20274;-78
2022/03/11 07:31:51;;;;;;;13.53;7.20;;;7.20;72.50;;;;;;4938674;28;20209;-78
2022/03/11 07:34:17;;;;;;;15.60;7.90;;;7.30;72.30;;;;;;4947196;28;20223;-80
2022/03/11 07:36:44;;;;;;;14.47;7.10;;;7.30;72.20;;;;;;4975036;28;20207;-79
2022/03/11 07:39:10;;;;;;;13.73;6.90;;;7.30;72.10;;;;;;4959221;28;20635;-78
2022/03/11 07:41:37;;;;;;;17.37;7.17;;;7.40;72.00;;;;;;4948278;28;20189;-79
2022/03/11 07:44:03;;;;;;;21.77;8.30;;;7.40;71.90;;;;;;4961180;28;20276;-78
2022/03/11 07:46:30;;;;;;;14.37;6.97;;;7.50;71.90;;;;;;4976863;28;20204;-77
2022/03/11 07:48:56;;;;;;;14.97;7.27;;;7.50;71.80;;;;;;4948236;28;20196;-78
2022/03/11 07:51:22;;;;;;;14.27;6.73;;;7.60;71.60;;;;;;4952162;28;20308;-79
2022/03/11 07:53:48;;;;;;;12.17;7.13;;;7.70;71.50;;;;;;4944681;28;20713;-79
2022/03/11 07:56:15;;;;;;;15.17;7.13;;;7.70;71.60;;;;;;4929384;28;20193;-80
2022/03/11 07:58:42;;;;;;;14.37;7.07;;;7.80;71.30;;;;;;4938906;28;20217;-77
2022/03/11 08:01:09;;;;;;;16.07;7.57;;;7.90;71.10;;;;;;4929921;28;20251;-79
2022/03/11 08:03:39;;;;;;;22.07;7.03;;;7.90;71.00;;;;;;4944976;28;20243;-79
2022/03/11 08:06:08;;;;;;;15.63;6.93;;;8.00;70.90;;;;;;4974814;28;20224;-78
2022/03/11 08:08:34;;;;;;;14.63;7.00;;;8.10;70.80;;;;;;4945565;28;20192;-79
2022/03/11 08:11:00;;;;;;;12.70;6.90;;;8.20;70.70;;;;;;4940554;28;20760;-78
2022/03/11 08:13:26;;;;;;;12.87;6.90;;;8.20;70.50;;;;;;4969336;28;20227;-79
2022/03/11 08:15:53;;;;;;;17.27;7.27;;;8.30;70.40;;;;;;4970813;28;20185;-79
2022/03/11 08:18:19;;;;;;;13.80;7.87;;;8.40;70.30;;;;;;4954745;28;20193;-79
2022/03/11 08:20:45;;;;;;;16.10;7.00;;;8.40;70.20;;;;;;4955640;28;20290;-78
2022/03/11 08:23:10;;;;;;;17.20;7.80;;;8.50;70.00;;;;;;4941330;28;20193;-79
2022/03/11 08:25:36;;;;;;;13.23;6.80;;;8.60;70.00;;;;;;4937047;28;20212;-79
2022/03/11 08:28:04;;;;;;;15.27;7.57;;;8.70;70.00;;;;;;4952488;28;20204;-80
2022/03/11 08:30:31;;;;;;;23.30;7.40;;;8.70;69.90;;;;;;4969336;28;20234;-79
2022/03/11 08:32:57;;;;;;;19.93;7.73;;;8.80;69.80;;;;;;4951735;28;20212;-78
2022/03/11 08:35:24;;;;;;;17.63;7.83;;;8.80;69.70;;;;;;4968220;28;20185;-79
2022/03/11 08:37:50;;;;;;;16.10;7.17;;;8.90;69.70;;;;;;4971478;28;20587;-79
2022/03/11 08:40:22;;;;;;;13.63;7.53;;;9.00;69.80;;;;;;4951640;28;20182;-78
2022/03/11 08:42:48;;;;;;;12.90;7.00;;;9.00;69.60;;;;;;4967553;28;20200;-78
2022/03/11 08:45:14;;;;;;;17.27;7.00;;;9.20;69.60;;;;;;4952038;28;20260;-79
2022/03/11 08:47:39;;;;;;;15.17;7.90;;;9.30;69.80;;;;;;4968520;28;20199;-80
2022/03/11 08:50:06;;;;;;;16.93;7.57;;;10.70;70.30;;;;;;4953820;28;20195;-78
2022/03/11 08:52:31;;;;;;;14.27;7.33;;;12.60;68.10;;;;;;4965147;28;20236;-79
2022/03/11 08:54:57;;;;;;;17.30;7.97;;;14.10;64.70;;;;;;4953893;28;20192;-79
2022/03/11 08:57:23;;;;;;;17.20;7.57;;;15.30;61.80;;;;;;4955553;28;20323;-79
2022/03/11 08:59:49;;;;;;;24.23;7.57;;;16.10;59.70;;;;;;4935230;28;20193;-79
2022/03/11 09:02:15;;;;;;;19.40;7.87;;;16.80;58.50;;;;;;4937060;28;20245;-79
2022/03/11 09:04:41;;;;;;;16.53;8.00;;;17.40;57.20;;;;;;4952037;28;20243;-79
2022/03/11 09:07:08;;;;;;;14.73;7.80;;;17.80;56.30;;;;;;4936438;28;20274;-79
2022/03/11 09:09:34;;;;;;;13.50;7.50;;;18.20;55.40;;;;;;4968234;28;20193;-78
2022/03/11 09:12:04;;;;;;;20.27;8.40;;;18.60;54.80;;;;;;4936792;28;20190;-80
2022/03/11 09:14:31;;;;;;;16.43;8.07;;;18.80;54.10;;;;;;4940938;28;20224;-79
2022/03/11 09:16:58;;;;;;;18.17;7.83;;;19.10;53.50;;;;;;4985994;28;20181;-78
2022/03/11 09:19:23;;;;;;;14.20;7.90;;;19.30;53.20;;;;;;4968080;28;20196;-78
2022/03/11 09:21:49;;;;;;;16.13;8.07;;;19.40;52.50;;;;;;4933968;28;20195;-79
2022/03/11 09:24:15;;;;;;;17.40;7.70;;;19.40;52.30;;;;;;4952927;28;20267;-79
2022/03/11 09:26:41;;;;;;;14.60;7.40;;;19.50;52.20;;;;;;4985437;28;20197;-79
2022/03/11 09:29:07;;;;;;;18.10;7.50;;;20.00;51.90;;;;;;4965405;28;20683;-77
2022/03/11 09:31:34;;;;;;;20.07;8.70;;;20.20;51.20;;;;;;4949880;28;20197;-78
2022/03/11 09:34:00;;;;;;;16.77;7.63;;;20.40;50.70;;;;;;4936511;28;20204;-78
2022/03/11 09:36:26;;;;;;;16.30;8.20;;;20.50;50.30;;;;;;4935494;28;20188;-79
2022/03/11 09:38:52;;;;;;;14.33;7.83;;;20.40;50.60;;;;;;4962829;28;20199;-79
2022/03/11 09:41:19;;;;;;;13.93;7.90;;;20.50;50.10;;;;;;4966594;28;20184;-79
2022/03/11 09:43:45;;;;;;;17.60;7.50;;;20.80;50.00;;;;;;4965820;28;20264;-79
2022/03/11 09:46:11;;;;;;;16.43;7.77;;;21.00;49.40;;;;;;4948741;28;20213;-80
2022/03/11 09:48:37;;;;;;;17.13;8.37;;;21.00;49.20;;;;;;4963724;28;20195;-79
2022/03/11 09:51:03;;;;;;;15.47;7.47;;;21.20;48.90;;;;;;4964225;28;20680;-80
2022/03/11 09:53:29;;;;;;;15.37;7.47;;;21.30;49.00;;;;;;4965369;28;20210;-80
2022/03/11 09:55:55;;;;;;;14.77;7.40;;;21.70;48.50;;;;;;4934026;28;20218;-78
2022/03/11 09:58:21;;;;;;;14.20;7.70;;;21.90;48.30;;;;;;4963161;28;20619;-78
2022/03/11 10:00:50;;;;;;;14.90;8.00;;;22.10;48.00;;;;;;4963163;28;20218;-78
2022/03/11 10:03:15;;;;;;;17.43;7.33;;;22.30;47.50;;;;;;4925734;28;21070;-78
2022/03/11 10:05:49;;;;;;;16.17;7.90;;;22.60;47.60;;;;;;4912927;29;20235;-78
2022/03/11 10:08:15;;;;;;;14.00;7.80;;;22.80;47.00;;;;;;4928632;29;20231;-80
2022/03/11 10:10:42;;;;;;;14.30;7.80;;;23.20;47.00;;;;;;4928472;29;20211;-78
2022/03/11 10:13:10;;;;;;;14.27;7.43;;;23.30;46.40;;;;;;4928527;29;20234;-78
2022/03/11 10:15:37;;;;;;;13.33;7.20;;;23.50;46.30;;;;;;4915048;29;20192;-78
2022/03/11 10:18:03;;;;;;;18.47;8.30;;;23.50;45.90;;;;;;4935388;28;20189;-80
2022/03/11 10:20:32;;;;;;;13.67;7.53;;;23.60;45.90;;;;;;4913491;29;20635;-78
2022/03/11 10:22:57;;;;;;;13.53;7.83;;;23.90;45.80;;;;;;4919432;29;20208;-78
2022/03/11 10:25:28;;;;;;;13.00;7.27;;;24.40;45.30;;;;;;4920931;29;20191;-78
2022/03/11 10:27:57;;;;;;;14.00;7.30;;;24.50;44.60;;;;;;4928922;29;20239;-77
2022/03/11 10:30:23;;;;;;;14.23;8.27;;;24.40;44.40;;;;;;4945521;29;20634;-78
2022/03/11 10:32:50;;;;;;;12.37;7.87;;;24.40;44.40;;;;;;4900036;29;20365;-78
2022/03/11 10:35:18;;;;;;;14.60;8.20;;;24.60;44.30;;;;;;4927697;29;20189;-79
2022/03/11 10:37:59;;;;;;;15.13;7.93;;;24.70;44.00;;;;;;4913068;29;20820;-78
2022/03/11 10:40:25;;;;;;;13.90;8.00;;;25.00;43.50;;;;;;4929752;29;20195;-79
2022/03/11 10:43:10;;;;;;;15.40;7.50;;;25.20;43.40;;;;;;4929010;29;20525;-79
2022/03/11 10:45:47;;;;;;;16.13;8.13;;;25.30;42.90;;;;;;4913229;29;20324;-80
2022/03/11 10:48:13;;;;;;;16.00;8.27;;;25.50;42.90;;;;;;4935999;29;20214;-80
2022/03/11 10:50:39;;;;;;;22.70;8.47;;;25.70;42.90;;;;;;4930058;29;20187;-79
2022/03/11 10:53:09;;;;;;;15.60;8.37;;;26.00;42.60;;;;;;4914555;29;20220;-79
2022/03/11 10:55:39;;;;;;;14.90;8.30;;;26.10;42.20;;;;;;4946681;29;20648;-78
2022/03/11 10:58:07;;;;;;;12.93;8.03;;;26.00;41.90;;;;;;4929418;29;20208;-79
2022/03/11 11:00:39;;;;;;;14.37;8.03;;;25.90;41.70;;;;;;4929848;29;20526;-80
2022/03/11 11:03:08;;;;;;;14.33;7.80;;;25.70;41.70;;;;;;4935649;28;20228;-80
2022/03/11 11:05:35;;;;;;;15.00;8.40;;;25.80;41.80;;;;;;4965546;28;20732;-79
2022/03/11 11:08:03;;;;;;;13.43;7.85;;;26.00;41.70;;;;;;4955573;28;20211;-79
2022/03/11 11:10:31;;;;;;;14.63;8.32;;;26.30;41.60;;;;;;4969762;28;20190;-79
2022/03/11 11:12:56;;;;;;;13.40;8.55;;;26.40;41.20;;;;;;4965705;28;20593;-79
2022/03/11 11:15:22;;;;;;;15.68;8.45;;;26.60;40.80;;;;;;4964431;28;20271;-79
2022/03/11 11:17:50;;;;;;;13.55;7.57;;;26.60;40.80;;;;;;4949620;28;20656;-79
2022/03/11 11:20:23;;;;;;;14.13;8.05;;;26.70;40.70;;;;;;4949389;28;20188;-79
2022/03/11 11:22:52;;;;;;;15.82;8.23;;;27.00;40.30;;;;;;4964542;28;20262;-79
2022/03/11 11:25:20;;;;;;;10.75;7.50;;;26.90;40.20;;;;;;4965246;28;20514;-79
2022/03/11 11:27:46;;;;;;;17.02;8.15;;;26.90;40.20;;;;;;4969504;28;20241;-80
2022/03/11 11:30:18;;;;;;;14.90;8.10;;;26.80;40.10;;;;;;4964791;28;20266;-79
2022/03/11 11:32:44;;;;;;;28.85;8.40;;;26.90;40.00;;;;;;4967558;28;20274;-80
2022/03/11 11:35:27;;;;;;;14.07;8.45;;;27.20;40.00;;;;;;4937264;28;20242;-80
2022/03/11 11:37:55;;;;;;;16.05;8.75;;;27.40;39.60;;;;;;4968098;28;20184;-78
2022/03/11 11:40:47;;;;;;;13.20;8.25;;;27.40;39.50;;;;;;4981611;28;20191;-79
2022/03/11 11:43:28;;;;;;;12.65;7.93;;;27.50;39.30;;;;;;4965737;28;20200;-80
2022/03/11 11:46:08;;;;;;;14.27;8.88;;;27.70;39.40;;;;;;4967791;28;20191;-80
2022/03/11 11:48:52;;;;;;;15.75;8.77;;;28.00;39.20;;;;;;4966489;28;20188;-79
2022/03/11 11:51:41;;;;;;;14.35;8.43;;;28.10;38.90;;;;;;4967948;28;20189;-79
2022/03/11 11:54:14;;;;;;;12.60;8.48;;;28.00;38.90;;;;;;4955371;28;20269;-80
2022/03/11 11:56:44;;;;;;;13.30;9.00;;;28.20;39.00;;;;;;4970151;28;20172;-79
2022/03/11 11:59:18;;;;;;;14.40;8.35;;;28.40;38.80;;;;;;4961610;28;20215;-80
2022/03/11 12:01:46;;;;;;;17.30;8.95;;;28.20;38.40;;;;;;4972203;28;20251;-79
2022/03/11 12:04:28;;;;;;;15.50;7.97;;;27.60;38.50;;;;;;4986899;28;20336;-79
2022/03/11 12:07:01;;;;;;;21.05;8.80;;;27.00;38.70;;;;;;4983535;28;20669;-79
2022/03/11 12:09:50;;;;;;;13.02;8.57;;;26.40;39.20;;;;;;4955142;28;20200;-79
2022/03/11 12:12:19;;;;;;;14.55;8.48;;;25.70;39.80;;;;;;4969027;28;20193;-79
2022/03/11 12:15:05;;;;;;;13.52;8.02;;;25.60;40.40;;;;;;4990092;28;20214;-80
2022/03/11 12:17:36;;;;;;;14.35;7.60;;;26.00;40.40;;;;;;4970569;28;20245;-79
2022/03/11 12:20:20;;;;;;;13.75;7.95;;;26.20;40.30;;;;;;4954186;28;20189;-79
2022/03/11 12:23:03;;;;;;;12.52;8.00;;;26.70;40.10;;;;;;4968923;28;20190;-80
2022/03/11 12:25:31;;;;;;;12.38;8.25;;;27.10;39.80;;;;;;4969305;28;20194;-80
2022/03/11 12:28:32;;;;;;;12.48;8.02;;;27.30;39.80;;;;;;4965961;28;20206;-80
2022/03/11 12:31:00;;;;;;;13.27;8.02;;;27.60;39.10;;;;;;4960495;28;20224;-80
2022/03/11 12:33:33;;;;;;;12.82;8.23;;;27.60;39.30;;;;;;4970142;28;20199;-79
2022/03/11 12:36:01;;;;;;;19.13;9.07;;;27.60;39.10;;;;;;4970164;28;20222;-80
2022/03/11 12:38:31;;;;;;;13.25;8.88;;;27.30;39.10;;;;;;4970600;28;20215;-78
2022/03/11 12:41:22;;;;;;;11.80;8.25;;;26.50;39.30;;;;;;4970285;28;20263;-82
2022/03/11 12:43:48;;;;;;;17.45;9.00;;;25.30;39.70;;;;;;4986960;28;20216;-80
2022/03/11 12:46:14;;;;;;;22.60;9.50;;;23.80;41.00;;;;;;4964147;28;20198;-79